createdAt,value
2023-08-23T00:00:07.140Z,22.25
2023-08-23T00:02:34.137Z,22.20
2023-08-23T00:05:00.903Z,22.18
2023-08-23T00:07:27.475Z,22.13
2023-08-23T00:09:54.227Z,22.16
2023-08-23T00:12:21.050Z,22.18
2023-08-23T00:14:47.600Z,22.13
2023-08-23T00:17:14.151Z,22.02
2023-08-23T00:19:40.712Z,21.96
2023-08-23T00:22:07.345Z,21.91
2023-08-23T00:24:33.885Z,21.90
2023-08-23T00:27:00.593Z,21.87
2023-08-23T00:29:27.191Z,21.87
2023-08-23T00:31:53.767Z,21.86
2023-08-23T00:34:20.357Z,21.84
2023-08-23T00:36:47.888Z,21.83
2023-08-23T00:39:14.545Z,21.83
2023-08-23T00:41:41.322Z,21.81
2023-08-23T00:44:08.067Z,21.79
2023-08-23T00:46:35.190Z,21.78
2023-08-23T00:49:02.053Z,21.77
2023-08-23T00:51:28.642Z,21.78
2023-08-23T00:53:55.241Z,21.77
2023-08-23T00:56:21.828Z,21.76
2023-08-23T00:58:48.574Z,21.75
2023-08-23T01:01:15.234Z,21.76
2023-08-23T01:03:42.065Z,21.76
2023-08-23T01:06:08.823Z,21.72
2023-08-23T01:08:41.203Z,21.69
2023-08-23T01:11:34.496Z,21.64
2023-08-23T01:14:05.010Z,21.62
2023-08-23T01:16:33.707Z,21.60
2023-08-23T01:19:04.542Z,21.58
2023-08-23T01:21:37.591Z,21.58
2023-08-23T01:24:09.869Z,21.57
2023-08-23T01:26:39.691Z,21.52
2023-08-23T01:29:06.402Z,21.47
2023-08-23T01:31:39.282Z,21.46
2023-08-23T01:34:16.721Z,21.47
2023-08-23T01:36:44.968Z,21.43
2023-08-23T01:39:12.228Z,21.42
2023-08-23T01:41:40.010Z,21.37
2023-08-23T01:44:06.792Z,21.35
2023-08-23T01:46:35.364Z,21.35
2023-08-23T01:49:02.741Z,21.32
2023-08-23T01:51:29.319Z,21.28
2023-08-23T01:53:55.928Z,21.24
2023-08-23T01:56:22.470Z,21.18
2023-08-23T01:58:49.060Z,21.16
2023-08-23T02:01:15.725Z,21.13
2023-08-23T02:03:42.467Z,21.15
2023-08-23T02:06:09.145Z,21.13
2023-08-23T02:08:36.909Z,21.11
2023-08-23T02:11:03.501Z,21.08
2023-08-23T02:13:30.066Z,21.06
2023-08-23T02:15:56.814Z,21.04
2023-08-23T02:18:23.540Z,21.04
2023-08-23T02:21:00.148Z,21.05
2023-08-23T02:23:27.180Z,21.04
2023-08-23T02:25:53.818Z,20.98
2023-08-23T02:28:20.537Z,20.91
2023-08-23T02:30:47.238Z,20.86
2023-08-23T02:33:13.984Z,20.84
2023-08-23T02:35:42.628Z,20.82
2023-08-23T02:38:09.828Z,20.80
2023-08-23T02:40:36.582Z,20.81
2023-08-23T02:43:03.145Z,20.79
2023-08-23T02:45:29.665Z,20.77
2023-08-23T02:47:56.194Z,20.74
2023-08-23T02:50:22.831Z,20.71
2023-08-23T02:52:49.402Z,20.73
2023-08-23T02:55:15.966Z,20.71
2023-08-23T02:57:42.572Z,20.70
2023-08-23T03:00:09.589Z,20.67
2023-08-23T03:02:36.235Z,20.65
2023-08-23T03:05:02.885Z,20.61
2023-08-23T03:07:29.449Z,20.60
2023-08-23T03:09:55.984Z,20.57
2023-08-23T03:12:22.597Z,20.52
2023-08-23T03:14:49.163Z,20.52
2023-08-23T03:17:15.732Z,20.53
2023-08-23T03:19:42.346Z,20.56
2023-08-23T03:22:09.230Z,20.52
2023-08-23T03:24:35.923Z,20.53
2023-08-23T03:27:02.483Z,20.50
2023-08-23T03:29:29.032Z,20.46
2023-08-23T03:31:55.610Z,20.44
2023-08-23T03:34:22.132Z,20.41
2023-08-23T03:36:49.939Z,20.40
2023-08-23T03:39:16.592Z,20.38
2023-08-23T03:41:43.105Z,20.34
2023-08-23T03:44:09.693Z,20.34
2023-08-23T03:46:36.298Z,20.32
2023-08-23T03:49:02.881Z,20.29
2023-08-23T03:51:29.435Z,20.26
2023-08-23T03:53:56.001Z,20.22
2023-08-23T03:56:22.552Z,20.20
2023-08-23T03:58:50.483Z,20.19
2023-08-23T04:01:17.091Z,20.16
2023-08-23T04:03:43.835Z,20.14
2023-08-23T04:06:10.522Z,20.18
2023-08-23T04:08:37.046Z,20.17
2023-08-23T04:11:03.626Z,20.19
2023-08-23T04:13:30.645Z,20.18
2023-08-23T04:15:57.185Z,20.18
2023-08-23T04:18:23.719Z,20.17
2023-08-23T04:21:00.274Z,20.18
2023-08-23T04:23:27.273Z,20.16
2023-08-23T04:25:53.911Z,20.14
2023-08-23T04:28:20.650Z,20.14
2023-08-23T04:30:47.181Z,20.18
2023-08-23T04:33:14.153Z,20.18
2023-08-23T04:35:40.828Z,20.18
2023-08-23T04:38:11.218Z,20.17
2023-08-23T04:40:38.029Z,20.16
2023-08-23T04:43:04.810Z,20.13
2023-08-23T04:45:31.343Z,20.10
2023-08-23T04:47:58.125Z,20.08
2023-08-23T04:50:24.741Z,20.08
2023-08-23T04:52:51.321Z,20.08
2023-08-23T04:55:18.070Z,20.49
2023-08-23T04:57:44.625Z,21.17
2023-08-23T05:00:12.788Z,21.64
2023-08-23T05:02:39.473Z,21.89
2023-08-23T05:05:07.365Z,22.26
2023-08-23T05:07:37.185Z,22.43
2023-08-23T05:10:05.670Z,22.59
2023-08-23T05:12:33.449Z,22.71
2023-08-23T05:15:00.053Z,22.84
2023-08-23T05:17:26.708Z,22.94
2023-08-23T05:19:53.234Z,22.95
2023-08-23T05:22:19.821Z,23.07
2023-08-23T05:24:46.401Z,23.11
2023-08-23T05:27:13.227Z,23.21
2023-08-23T05:29:39.828Z,23.27
2023-08-23T05:32:06.519Z,23.25
2023-08-23T05:34:33.103Z,23.22
2023-08-23T05:36:59.832Z,23.35
2023-08-23T05:39:26.476Z,23.37
2023-08-23T05:41:53.055Z,23.44
2023-08-23T05:44:19.649Z,23.50
2023-08-23T05:46:46.208Z,23.52
2023-08-23T05:49:12.871Z,23.52
2023-08-23T05:51:39.844Z,23.55
2023-08-23T05:54:07.309Z,23.58
2023-08-23T05:56:33.854Z,23.73
2023-08-23T05:59:00.404Z,24.04
2023-08-23T06:01:27.038Z,24.22
2023-08-23T06:03:53.741Z,24.41
2023-08-23T06:06:20.359Z,24.60
2023-08-23T06:08:46.935Z,24.80
2023-08-23T06:11:13.928Z,24.92
2023-08-23T06:13:43.886Z,25.05
2023-08-23T06:16:10.858Z,25.18
2023-08-23T06:18:37.490Z,25.20
2023-08-23T06:21:04.010Z,25.25
2023-08-23T06:23:30.573Z,25.32
2023-08-23T06:26:00.876Z,25.46
2023-08-23T06:28:27.559Z,25.56
2023-08-23T06:30:54.181Z,25.60
2023-08-23T06:33:20.857Z,25.62
2023-08-23T06:35:47.433Z,25.66
2023-08-23T06:38:16.933Z,25.73
2023-08-23T06:40:43.799Z,25.72
2023-08-23T06:43:18.335Z,25.79
2023-08-23T06:45:45.017Z,25.80
2023-08-23T06:48:11.827Z,25.86
2023-08-23T06:50:38.563Z,25.84
2023-08-23T06:53:06.454Z,25.87
2023-08-23T06:55:33.076Z,25.91
2023-08-23T06:57:59.733Z,25.88
2023-08-23T07:00:27.746Z,25.70
2023-08-23T07:02:54.419Z,25.54
2023-08-23T07:05:20.963Z,25.43
2023-08-23T07:07:48.480Z,25.19
2023-08-23T07:10:27.371Z,25.09
2023-08-23T07:12:54.960Z,25.11
2023-08-23T07:15:21.840Z,25.14
2023-08-23T07:17:50.265Z,25.08
2023-08-23T07:20:17.461Z,24.98
2023-08-23T07:22:44.159Z,24.93
2023-08-23T07:25:10.802Z,25.05
2023-08-23T07:27:38.139Z,25.15
2023-08-23T07:30:06.588Z,25.26
2023-08-23T07:32:33.680Z,25.35
2023-08-23T07:35:03.672Z,25.46
2023-08-23T07:37:30.263Z,25.50
2023-08-23T07:39:57.010Z,25.44
2023-08-23T07:42:25.247Z,25.44
2023-08-23T07:44:52.925Z,25.48
2023-08-23T07:47:19.740Z,25.60
2023-08-23T07:49:46.409Z,25.74
2023-08-23T07:52:14.161Z,25.88
2023-08-23T07:54:40.746Z,26.05
2023-08-23T07:57:07.371Z,26.12
2023-08-23T07:59:34.057Z,26.13
2023-08-23T08:02:01.316Z,26.10
2023-08-23T08:04:31.020Z,26.15
2023-08-23T08:06:57.778Z,26.20
2023-08-23T08:09:24.418Z,26.29
2023-08-23T08:11:50.965Z,26.38
2023-08-23T08:14:17.513Z,26.53
2023-08-23T08:16:44.158Z,26.67
2023-08-23T08:19:10.768Z,26.71
2023-08-23T08:21:38.024Z,26.83
2023-08-23T08:24:04.964Z,26.92
2023-08-23T08:26:31.607Z,26.92
2023-08-23T08:28:58.158Z,27.02
2023-08-23T08:31:24.745Z,27.12
2023-08-23T08:33:51.418Z,27.17
2023-08-23T08:36:18.044Z,27.10
2023-08-23T08:38:44.585Z,27.01
2023-08-23T08:41:13.551Z,26.98
2023-08-23T08:43:40.344Z,26.92
2023-08-23T08:46:07.793Z,26.87
2023-08-23T08:48:34.899Z,26.82
2023-08-23T08:51:04.101Z,26.93
2023-08-23T08:53:35.172Z,27.14
2023-08-23T08:56:02.211Z,27.24
2023-08-23T08:58:31.118Z,27.39
2023-08-23T09:01:01.853Z,27.57
2023-08-23T09:03:29.279Z,27.64
2023-08-23T09:05:56.377Z,27.58
2023-08-23T09:08:23.256Z,27.63
2023-08-23T09:10:49.923Z,27.76
2023-08-23T09:13:16.633Z,27.89
2023-08-23T09:15:43.335Z,27.95
2023-08-23T09:18:10.091Z,28.04
2023-08-23T09:20:37.294Z,28.14
2023-08-23T09:23:03.977Z,28.24
2023-08-23T09:25:30.573Z,28.30
2023-08-23T09:27:57.607Z,28.21
2023-08-23T09:30:24.808Z,28.28
2023-08-23T09:32:51.453Z,28.51
2023-08-23T09:35:19.247Z,28.77
2023-08-23T09:37:48.360Z,28.77
2023-08-23T09:40:25.189Z,28.76
2023-08-23T09:42:53.739Z,28.76
2023-08-23T09:45:24.370Z,28.84
2023-08-23T09:47:55.861Z,28.97
2023-08-23T09:50:24.402Z,28.87
2023-08-23T09:53:11.601Z,28.75
2023-08-23T09:55:40.269Z,28.68
2023-08-23T09:58:07.435Z,28.82
2023-08-23T10:00:34.842Z,29.06
2023-08-23T10:03:01.854Z,29.25
2023-08-23T10:05:29.400Z,29.45
2023-08-23T10:07:57.535Z,29.55
2023-08-23T10:10:25.142Z,29.66
2023-08-23T10:12:54.840Z,29.65
2023-08-23T10:15:28.126Z,29.53
2023-08-23T10:17:55.622Z,29.53
2023-08-23T10:20:23.859Z,29.64
2023-08-23T10:22:54.870Z,29.71
2023-08-23T10:25:22.890Z,29.78
2023-08-23T10:27:58.579Z,29.82
2023-08-23T10:30:29.792Z,29.77
2023-08-23T10:33:08.386Z,29.95
2023-08-23T10:35:36.292Z,30.18
2023-08-23T10:38:05.582Z,30.26
2023-08-23T10:40:33.658Z,30.37
2023-08-23T10:43:05.267Z,30.52
2023-08-23T10:45:49.671Z,30.66
2023-08-23T10:48:17.410Z,30.78
2023-08-23T10:50:44.101Z,30.87
2023-08-23T10:53:12.182Z,30.94
2023-08-23T10:55:38.981Z,30.96
2023-08-23T10:58:05.538Z,31.00
2023-08-23T11:00:32.266Z,31.06
2023-08-23T11:02:59.941Z,31.13
2023-08-23T11:05:27.956Z,31.13
2023-08-23T11:07:58.191Z,31.14
2023-08-23T11:10:26.464Z,31.08
2023-08-23T11:12:53.471Z,31.03
2023-08-23T11:15:21.755Z,31.07
2023-08-23T11:17:49.332Z,31.11
2023-08-23T11:20:17.266Z,31.06
2023-08-23T11:22:44.164Z,31.16
2023-08-23T11:25:10.906Z,31.25
2023-08-23T11:27:37.630Z,31.41
2023-08-23T11:30:05.206Z,31.56
2023-08-23T11:32:32.173Z,31.60
2023-08-23T11:34:58.837Z,31.52
2023-08-23T11:37:25.471Z,31.57
2023-08-23T11:39:59.495Z,31.73
2023-08-23T11:42:26.665Z,31.86
2023-08-23T11:44:57.197Z,31.94
2023-08-23T11:47:27.335Z,31.96
2023-08-23T11:49:54.084Z,32.05
2023-08-23T11:52:20.727Z,32.18
2023-08-23T11:54:47.365Z,32.29
2023-08-23T11:57:20.066Z,31.96
2023-08-23T11:59:47.771Z,31.80
2023-08-23T12:02:14.533Z,31.83
2023-08-23T12:04:43.294Z,31.93
2023-08-23T12:07:10.806Z,32.04
2023-08-23T12:09:37.706Z,32.20
2023-08-23T12:12:04.699Z,32.09
2023-08-23T12:14:31.308Z,31.97
2023-08-23T12:16:57.917Z,32.02
2023-08-23T12:19:31.766Z,32.19
2023-08-23T12:21:58.855Z,32.23
2023-08-23T12:24:25.443Z,32.33
2023-08-23T12:26:52.061Z,32.40
2023-08-23T12:29:18.614Z,32.56
2023-08-23T12:31:45.312Z,32.70
2023-08-23T12:34:11.897Z,32.81
2023-08-23T12:36:38.534Z,32.75
2023-08-23T12:39:05.880Z,32.71
2023-08-23T12:41:32.752Z,32.73
2023-08-23T12:44:01.512Z,32.66
2023-08-23T12:46:30.744Z,32.60
2023-08-23T12:48:57.378Z,32.70
2023-08-23T12:51:25.875Z,32.79
2023-08-23T12:53:52.456Z,32.81
2023-08-23T12:56:19.062Z,32.94
2023-08-23T12:58:45.654Z,33.07
2023-08-23T13:01:12.369Z,33.19
2023-08-23T13:03:39.226Z,33.34
2023-08-23T13:06:05.882Z,33.43
2023-08-23T13:08:32.481Z,33.53
2023-08-23T13:10:59.099Z,33.74
2023-08-23T13:13:27.987Z,33.82
2023-08-23T13:15:54.584Z,33.90
2023-08-23T13:18:21.292Z,33.93
2023-08-23T13:20:47.868Z,33.98
2023-08-23T13:23:14.486Z,33.80
2023-08-23T13:25:41.134Z,33.69
2023-08-23T13:28:07.851Z,33.52
2023-08-23T13:30:34.441Z,33.41
2023-08-23T13:33:01.459Z,33.64
2023-08-23T13:35:28.273Z,33.79
2023-08-23T13:37:54.806Z,33.90
2023-08-23T13:40:21.346Z,34.04
2023-08-23T13:42:51.026Z,33.96
2023-08-23T13:45:22.252Z,34.02
2023-08-23T13:47:50.078Z,34.05
2023-08-23T13:50:18.802Z,33.99
2023-08-23T13:52:45.402Z,33.77
2023-08-23T13:55:12.111Z,33.69
2023-08-23T13:57:38.712Z,33.76
2023-08-23T14:00:08.373Z,33.91
2023-08-23T14:02:35.629Z,34.24
2023-08-23T14:05:02.215Z,34.72
2023-08-23T14:07:29.168Z,35.17
2023-08-23T14:09:55.799Z,35.35
2023-08-23T14:12:22.309Z,35.83
2023-08-23T14:14:48.948Z,36.41
2023-08-23T14:17:15.501Z,36.93
2023-08-23T14:19:48.983Z,37.41
2023-08-23T14:22:16.411Z,37.74
2023-08-23T14:24:43.869Z,38.05
2023-08-23T14:27:11.654Z,38.06
2023-08-23T14:29:38.430Z,38.27
2023-08-23T14:32:05.077Z,38.65
2023-08-23T14:34:31.695Z,38.73
2023-08-23T14:36:58.289Z,38.86
2023-08-23T14:39:25.095Z,39.15
2023-08-23T14:41:51.781Z,39.55
2023-08-23T14:44:18.365Z,39.94
2023-08-23T14:46:44.934Z,40.30
2023-08-23T14:49:11.650Z,40.44
2023-08-23T14:51:38.279Z,40.13
2023-08-23T14:54:04.970Z,40.11
2023-08-23T14:56:31.582Z,40.44
2023-08-23T14:58:58.610Z,40.80
2023-08-23T15:01:25.443Z,40.95
2023-08-23T15:03:52.088Z,40.90
2023-08-23T15:06:18.664Z,40.70
2023-08-23T15:08:45.427Z,40.63
2023-08-23T15:11:12.095Z,40.70
2023-08-23T15:13:39.738Z,40.55
2023-08-23T15:16:06.339Z,40.62
2023-08-23T15:18:33.075Z,40.66
2023-08-23T15:20:59.639Z,40.75
2023-08-23T15:23:29.111Z,40.84
2023-08-23T15:25:55.731Z,41.00
2023-08-23T15:28:23.106Z,41.18
2023-08-23T15:30:49.716Z,41.47
2023-08-23T15:33:16.427Z,41.45
2023-08-23T15:35:43.124Z,41.21
2023-08-23T15:38:10.164Z,40.88
2023-08-23T15:40:37.491Z,40.82
2023-08-23T15:43:04.248Z,41.01
2023-08-23T15:45:30.799Z,41.11
2023-08-23T15:47:58.961Z,41.12
2023-08-23T15:50:25.991Z,41.03
2023-08-23T15:52:52.548Z,40.89
2023-08-23T15:55:20.146Z,40.61
2023-08-23T15:57:47.133Z,40.55
2023-08-23T16:00:14.541Z,40.71
2023-08-23T16:02:41.272Z,40.70
2023-08-23T16:05:08.182Z,40.43
2023-08-23T16:07:34.849Z,40.16
2023-08-23T16:10:02.212Z,39.98
2023-08-23T16:12:28.809Z,39.67
2023-08-23T16:14:55.384Z,39.70
2023-08-23T16:17:21.929Z,39.76
2023-08-23T16:19:48.545Z,39.79
2023-08-23T16:22:15.146Z,39.73
2023-08-23T16:24:43.087Z,39.48
2023-08-23T16:27:09.727Z,39.35
2023-08-23T16:29:36.269Z,39.13
2023-08-23T16:32:02.836Z,38.97
2023-08-23T16:34:29.855Z,39.08
2023-08-23T16:36:56.623Z,39.15
2023-08-23T16:39:23.234Z,39.10
2023-08-23T16:41:51.917Z,39.00
2023-08-23T16:44:20.269Z,38.87
2023-08-23T16:46:46.814Z,38.78
2023-08-23T16:49:13.563Z,38.53
2023-08-23T16:51:40.387Z,38.25
2023-08-23T16:54:07.314Z,37.62
2023-08-23T16:56:35.746Z,36.97
2023-08-23T16:59:02.467Z,36.38
2023-08-23T17:01:29.113Z,35.79
2023-08-23T17:03:55.816Z,35.29
2023-08-23T17:06:22.409Z,34.87
2023-08-23T17:08:48.934Z,34.52
2023-08-23T17:11:16.693Z,34.25
2023-08-23T17:13:43.520Z,33.90
2023-08-23T17:16:10.186Z,33.66
2023-08-23T17:18:36.877Z,33.41
2023-08-23T17:21:03.684Z,33.13
2023-08-23T17:23:30.776Z,32.83
2023-08-23T17:25:57.876Z,32.56
2023-08-23T17:28:24.548Z,32.27
2023-08-23T17:30:52.446Z,31.96
2023-08-23T17:33:21.313Z,31.67
2023-08-23T17:35:48.210Z,31.39
2023-08-23T17:38:14.809Z,31.17
2023-08-23T17:40:41.334Z,30.94
2023-08-23T17:43:08.045Z,30.73
2023-08-23T17:45:34.767Z,30.59
2023-08-23T17:48:01.423Z,30.48
2023-08-23T17:50:28.051Z,30.32
2023-08-23T17:52:56.441Z,30.23
2023-08-23T17:55:23.402Z,30.16
2023-08-23T17:57:49.952Z,30.05
2023-08-23T18:00:17.343Z,29.97
2023-08-23T18:02:44.325Z,29.87
2023-08-23T18:05:11.084Z,29.77
2023-08-23T18:07:38.826Z,29.65
2023-08-23T18:10:08.408Z,29.56
2023-08-23T18:12:35.323Z,29.47
2023-08-23T18:15:03.369Z,29.39
2023-08-23T18:17:29.978Z,29.29
2023-08-23T18:19:58.525Z,29.13
2023-08-23T18:22:25.158Z,29.04
2023-08-23T18:24:51.790Z,28.93
2023-08-23T18:27:18.336Z,28.78
2023-08-23T18:29:44.896Z,28.65
2023-08-23T18:32:11.479Z,28.55
2023-08-23T18:34:38.127Z,28.45
2023-08-23T18:37:04.927Z,28.37
2023-08-23T18:39:31.493Z,28.26
2023-08-23T18:41:58.187Z,28.17
2023-08-23T18:44:24.735Z,28.05
2023-08-23T18:46:51.304Z,27.93
2023-08-23T18:49:17.829Z,27.85
2023-08-23T18:51:44.420Z,27.74
2023-08-23T18:54:12.219Z,27.67
2023-08-23T18:56:39.024Z,27.58
2023-08-23T18:59:05.624Z,27.53
2023-08-23T19:01:32.491Z,27.44
2023-08-23T19:03:59.315Z,27.36
2023-08-23T19:06:27.067Z,27.32
2023-08-23T19:08:53.601Z,27.26
2023-08-23T19:11:20.168Z,27.20
2023-08-23T19:13:46.780Z,27.12
2023-08-23T19:16:13.470Z,27.07
2023-08-23T19:18:40.072Z,27.04
2023-08-23T19:21:06.674Z,26.97
2023-08-23T19:23:33.196Z,26.95
2023-08-23T19:25:59.996Z,26.92
2023-08-23T19:28:26.577Z,26.90
2023-08-23T19:30:53.233Z,26.87
2023-08-23T19:33:19.830Z,26.83
2023-08-23T19:35:47.349Z,26.77
2023-08-23T19:38:14.069Z,26.71
2023-08-23T19:40:40.900Z,26.64
2023-08-23T19:43:07.784Z,26.60
2023-08-23T19:45:34.607Z,26.52
2023-08-23T19:48:13.644Z,26.47
2023-08-23T19:50:49.680Z,26.41
2023-08-23T19:53:18.166Z,26.38
2023-08-23T19:55:44.812Z,26.31
2023-08-23T19:58:11.517Z,26.27
2023-08-23T20:00:38.165Z,26.20
2023-08-23T20:03:05.155Z,26.16
2023-08-23T20:05:31.834Z,26.12
2023-08-23T20:08:01.371Z,26.08
2023-08-23T20:10:29.163Z,26.01
2023-08-23T20:12:55.822Z,25.95
2023-08-23T20:15:22.490Z,25.92
2023-08-23T20:17:49.385Z,25.91
2023-08-23T20:20:16.263Z,25.91
2023-08-23T20:22:42.851Z,25.87
2023-08-23T20:25:09.736Z,25.81
2023-08-23T20:27:36.326Z,25.79
2023-08-23T20:30:03.826Z,25.75
2023-08-23T20:32:30.547Z,25.69
2023-08-23T20:34:57.197Z,25.64
2023-08-23T20:37:23.845Z,25.56
2023-08-23T20:39:50.422Z,25.51
2023-08-23T20:42:17.256Z,25.45
2023-08-23T20:44:43.831Z,25.45
2023-08-23T20:47:10.479Z,25.45
2023-08-23T20:49:37.101Z,25.43
2023-08-23T20:52:04.672Z,25.43
2023-08-23T20:54:32.008Z,25.40
2023-08-23T20:56:58.658Z,25.35
2023-08-23T20:59:25.253Z,25.30
2023-08-23T21:01:52.021Z,25.27
2023-08-23T21:04:18.700Z,25.26
2023-08-23T21:06:45.400Z,25.25
2023-08-23T21:09:12.002Z,25.22
2023-08-23T21:11:38.684Z,25.20
2023-08-23T21:14:06.767Z,25.16
2023-08-23T21:16:33.645Z,25.13
2023-08-23T21:19:01.635Z,25.08
2023-08-23T21:21:29.028Z,25.05
2023-08-23T21:23:55.712Z,25.02
2023-08-23T21:26:23.115Z,25.00
2023-08-23T21:28:50.139Z,24.96
2023-08-23T21:31:16.854Z,24.99
2023-08-23T21:33:43.558Z,25.01
2023-08-23T21:36:10.181Z,24.98
2023-08-23T21:38:36.806Z,24.94
2023-08-23T21:41:03.612Z,24.97
2023-08-23T21:43:30.544Z,24.97
2023-08-23T21:45:58.280Z,24.99
2023-08-23T21:48:25.777Z,24.96
2023-08-23T21:50:52.988Z,24.98
2023-08-23T21:53:19.698Z,24.96
2023-08-23T21:55:56.933Z,24.92
2023-08-23T21:58:24.288Z,24.93
2023-08-23T22:00:54.728Z,24.92
2023-08-23T22:03:35.527Z,24.91
2023-08-23T22:06:07.478Z,24.88
2023-08-23T22:08:35.618Z,24.85
2023-08-23T22:11:03.591Z,24.78
2023-08-23T22:13:32.363Z,24.76
2023-08-23T22:15:59.165Z,24.76
2023-08-23T22:18:27.060Z,24.70
2023-08-23T22:20:54.434Z,24.67
2023-08-23T22:23:22.781Z,24.61
2023-08-23T22:25:50.139Z,24.55
2023-08-23T22:28:17.052Z,24.50
2023-08-23T22:30:43.793Z,24.49
2023-08-23T22:33:10.644Z,24.44
2023-08-23T22:35:39.059Z,24.37
2023-08-23T22:38:06.784Z,24.31
2023-08-23T22:40:37.338Z,24.28
2023-08-23T22:43:04.389Z,24.22
2023-08-23T22:45:32.215Z,24.18
2023-08-23T22:48:01.126Z,24.13
2023-08-23T22:50:28.318Z,24.07
2023-08-23T22:52:55.069Z,24.04
2023-08-23T22:55:21.802Z,23.98
2023-08-23T22:57:49.136Z,23.94
2023-08-23T23:00:16.180Z,23.92
2023-08-23T23:02:43.700Z,23.92
2023-08-23T23:05:10.504Z,23.94
2023-08-23T23:07:38.755Z,23.93
2023-08-23T23:10:07.381Z,23.90
2023-08-23T23:12:34.995Z,23.87
2023-08-23T23:15:04.551Z,23.88
2023-08-23T23:17:31.949Z,23.84
2023-08-23T23:19:58.957Z,23.78
2023-08-23T23:22:25.778Z,23.73
2023-08-23T23:24:52.347Z,23.72
2023-08-23T23:27:18.908Z,23.73
2023-08-23T23:29:45.564Z,23.78
2023-08-23T23:32:12.409Z,23.80
2023-08-23T23:34:39.072Z,23.81
2023-08-23T23:37:05.895Z,23.86
2023-08-23T23:39:32.540Z,23.88
2023-08-23T23:41:59.129Z,23.90
2023-08-23T23:44:25.748Z,23.87
2023-08-23T23:46:52.414Z,23.87
2023-08-23T23:49:19.050Z,23.88
2023-08-23T23:51:45.752Z,23.90
2023-08-23T23:54:12.316Z,23.89
2023-08-23T23:56:38.948Z,23.87
2023-08-23T23:59:06.358Z,23.88
